Time;durP1;ratioP1;P1;durP2;ratioP2;P2;SDS_P1;SDS_P2;PMS_P1;PMS_P2;Temp;Humidity;BMP_temperature;BMP_pressure;BME280_temperature;BME280_humidity;BME280_pressure;Samples;Min_cycle;Max_cycle;Signal;HPM_P1;HPM_P2
2021/12/30 00:00:21;;;;;;;;;;;;;;;22.76;52.68;100524.00;2086887;28;19920;-48
2021/12/30 00:01:23;;;;;;;;;;;;;;;22.77;52.65;100528.47;2088072;28;19923;-48
2021/12/30 00:02:24;;;;;;;;;;;;;;;22.77;52.67;100528.47;2090228;28;20017;-52
2021/12/30 00:03:25;;;;;;;;;;;;;;;22.78;52.71;100527.44;2087919;28;20335;-49
2021/12/30 00:04:25;;;;;;;;;;;;;;;22.78;52.62;100525.53;2092336;28;20105;-48
2021/12/30 00:05:26;;;;;;;;;;;;;;;22.78;52.64;100524.69;2093779;28;19916;-49
2021/12/30 00:06:26;;;;;;;;;;;;;;;22.80;52.57;100528.16;2089848;28;20233;-48
2021/12/30 00:07:28;;;;;;;;;;;;;;;22.80;52.53;100522.66;2088396;28;19916;-50
2021/12/30 00:08:28;;;;;;;;;;;;;;;22.80;52.64;100529.00;2092356;28;20712;-49
2021/12/30 00:09:28;;;;;;;;;;;;;;;22.82;52.50;100531.59;2092420;28;20001;-49
2021/12/30 00:10:29;;;;;;;;;;;;;;;22.82;52.51;100531.59;2093212;28;19916;-52
2021/12/30 00:11:29;;;;;;;;;;;;;;;22.82;52.51;100531.59;2088932;28;19968;-49
2021/12/30 00:12:29;;;;;;;;;;;;;;;22.83;52.60;100527.81;2087929;28;19916;-51
2021/12/30 00:13:30;;;;;;;;;;;;;;;22.83;52.60;100536.94;2091791;28;20054;-50
2021/12/30 00:14:30;;;;;;;;;;;;;;;22.82;52.44;100532.44;2089503;28;19914;-48
2021/12/30 00:15:30;;;;;;;;;;;;;;;22.81;52.46;100536.25;2087807;28;19908;-48
2021/12/30 00:16:31;;;;;;;;;;;;;;;22.82;52.55;100531.59;2091850;28;19916;-48
2021/12/30 00:17:31;;;;;;;;;;;;;;;22.83;52.47;100523.19;2087945;28;19908;-48
2021/12/30 00:18:32;;;;;;;;;;;;;;;22.83;52.44;100523.19;2089310;28;19908;-49
2021/12/30 00:19:32;;;;;;;;;;;;;;;22.82;52.53;100517.84;2090094;28;20346;-52
2021/12/30 00:20:32;;;;;;;;;;;;;;;22.82;52.53;100510.47;2093188;28;19967;-51
2021/12/30 00:21:33;;;;;;;;;;;;;;;22.82;52.43;100509.59;2086117;28;19966;-48
2021/12/30 00:22:34;;;;;;;;;;;;;;;22.82;52.47;100512.34;2093067;28;20626;-48
2021/12/30 00:23:34;;;;;;;;;;;;;;;22.81;52.59;100524.38;2090630;28;20385;-49
2021/12/30 00:24:34;;;;;;;;;;;;;;;22.81;52.43;100513.41;2086531;28;19977;-48
2021/12/30 00:25:40;;;;;;;;;;;;;;;22.83;52.62;100511.31;2090665;28;19912;-49
2021/12/30 00:26:40;;;;;;;;;;;;;;;22.84;52.46;100513.06;2089490;28;19915;-47
2021/12/30 00:27:40;;;;;;;;;;;;;;;22.82;52.62;100509.59;2088693;28;19951;-46
2021/12/30 00:28:41;;;;;;;;;;;;;;;22.83;52.52;100512.19;2088288;28;19912;-45
2021/12/30 00:29:41;;;;;;;;;;;;;;;22.85;52.44;100514.75;2085233;28;20226;-47
2021/12/30 00:30:42;;;;;;;;;;;;;;;22.86;52.49;100511.00;2091662;28;19915;-49
2021/12/30 00:31:43;;;;;;;;;;;;;;;22.86;52.48;100511.00;2095490;28;20360;-46
2021/12/30 00:32:43;;;;;;;;;;;;;;;22.86;52.32;100511.88;2086605;28;19908;-46
2021/12/30 00:33:43;;;;;;;;;;;;;;;22.87;52.45;100498.97;2091005;28;20508;-45
2021/12/30 00:34:43;;;;;;;;;;;;;;;22.86;52.39;100506.38;2095904;28;19946;-45
2021/12/30 00:35:44;;;;;;;;;;;;;;;22.87;52.42;100498.97;2093414;28;20245;-46
2021/12/30 00:36:44;;;;;;;;;;;;;;;22.88;52.38;100497.94;2093936;28;19904;-45
2021/12/30 00:37:44;;;;;;;;;;;;;;;22.88;52.25;100508.94;2091787;28;19908;-47
2021/12/30 00:38:45;;;;;;;;;;;;;;;22.88;52.29;100503.44;2091224;28;19908;-46
2021/12/30 00:39:45;;;;;;;;;;;;;;;22.87;52.27;100496.22;2092760;28;19920;-48
2021/12/30 00:40:46;;;;;;;;;;;;;;;22.88;52.27;100497.94;2091817;28;19908;-46
2021/12/30 00:41:46;;;;;;;;;;;;;;;22.87;52.34;100493.47;2094804;28;19908;-46
2021/12/30 00:42:46;;;;;;;;;;;;;;;22.86;52.28;100500.88;2092337;28;20800;-46
2021/12/30 00:43:47;;;;;;;;;;;;;;;22.87;52.35;100501.72;2096246;28;19946;-46
2021/12/30 00:44:47;;;;;;;;;;;;;;;22.86;52.38;100491.78;2093873;28;19973;-45
2021/12/30 00:45:48;;;;;;;;;;;;;;;22.87;52.28;100496.22;2090337;28;19912;-48
2021/12/30 00:46:48;;;;;;;;;;;;;;;22.87;52.37;100494.34;2094702;28;20473;-46
2021/12/30 00:47:48;;;;;;;;;;;;;;;22.87;52.23;100485.22;2085959;28;20338;-45
2021/12/30 00:48:49;;;;;;;;;;;;;;;22.86;52.36;100489.03;2084938;28;19909;-47
2021/12/30 00:49:51;;;;;;;;;;;;;;;22.86;52.27;100489.88;2088305;28;20174;-46
2021/12/30 00:50:52;;;;;;;;;;;;;;;22.89;52.26;100485.94;2085146;28;19962;-45
2021/12/30 00:51:52;;;;;;;;;;;;;;;22.90;52.16;100484.91;2089400;28;20005;-45
2021/12/30 00:52:53;;;;;;;;;;;;;;;22.76;52.39;100482.75;2091306;28;19912;-45
2021/12/30 00:53:53;;;;;;;;;;;;;;;22.55;52.50;100486.78;2093022;28;19960;-45
2021/12/30 00:54:54;;;;;;;;;;;;;;;22.38;52.73;100491.31;2093318;28;19970;-47
2021/12/30 00:55:54;;;;;;;;;;;;;;;22.25;53.26;100491.75;2090808;28;19915;-45
2021/12/30 00:56:54;;;;;;;;;;;;;;;22.15;53.40;100490.13;2094753;28;19938;-46
2021/12/30 00:57:55;;;;;;;;;;;;;;;22.07;53.57;100485.41;2091876;28;19908;-45
2021/12/30 00:58:55;;;;;;;;;;;;;;;22.01;53.95;100488.81;2092833;28;20607;-44
2021/12/30 00:59:56;;;;;;;;;;;;;;;21.95;54.04;100481.19;2091455;28;20300;-44
2021/12/30 01:00:59;;;;;;;;;;;;;;;21.91;54.33;100490.78;2090177;28;19929;-44
2021/12/30 01:01:59;;;;;;;;;;;;;;;21.89;54.22;100487.34;2091571;28;19947;-44
2021/12/30 01:02:59;;;;;;;;;;;;;;;21.86;54.24;100485.78;2090156;28;19923;-45
2021/12/30 01:04:00;;;;;;;;;;;;;;;21.83;54.36;100481.47;2090804;28;20097;-46
2021/12/30 01:05:00;;;;;;;;;;;;;;;21.82;54.58;100481.63;2091205;28;20033;-45
2021/12/30 01:06:01;;;;;;;;;;;;;;;21.79;54.54;100480.06;2087331;28;20776;-45
2021/12/30 01:07:02;;;;;;;;;;;;;;;21.79;54.47;100474.56;2090693;28;20600;-44
2021/12/30 01:08:03;;;;;;;;;;;;;;;21.78;54.83;100480.22;2093547;28;19931;-45
2021/12/30 01:09:04;;;;;;;;;;;;;;;21.76;54.71;100485.00;2090449;28;19916;-48
2021/12/30 01:10:05;;;;;;;;;;;;;;;21.74;54.96;100482.41;2085960;28;20246;-45
2021/12/30 01:11:08;;;;;;;;;;;;;;;21.72;54.88;100487.19;2088620;28;19912;-45
2021/12/30 01:12:08;;;;;;;;;;;;;;;21.72;54.63;100483.59;2088207;28;19990;-45
2021/12/30 01:13:16;;;;;;;;;;;;;;;21.70;54.97;100486.47;2092980;28;19945;-44
2021/12/30 01:14:20;;;;;;;;;;;;;;;21.70;54.79;100486.47;2089621;28;19921;-45
2021/12/30 01:15:30;;;;;;;;;;;;;;;21.69;54.93;100484.78;2088121;28;19966;-45
2021/12/30 01:16:35;;;;;;;;;;;;;;;21.68;54.88;100488.53;2094571;28;20717;-45
2021/12/30 01:17:45;;;;;;;;;;;;;;;21.69;54.83;100489.41;2091594;28;19916;-45
2021/12/30 01:19:57;;;;;;;;;;;;;;;21.65;55.05;100483.34;2094526;28;19985;-44
2021/12/30 01:20:57;;;;;;;;;;;;;;;21.64;54.96;100481.63;2092731;28;19916;-44
2021/12/30 01:21:58;;;;;;;;;;;;;;;21.62;54.94;100480.94;2088168;28;19920;-44
2021/12/30 01:22:58;;;;;;;;;;;;;;;21.62;54.92;100479.03;2089935;28;20036;-44
2021/12/30 01:23:59;;;;;;;;;;;;;;;21.61;55.21;100481.97;2089305;28;19916;-44
2021/12/30 01:24:59;;;;;;;;;;;;;;;21.60;55.25;100483.81;2092646;28;20184;-45
2021/12/30 01:26:00;;;;;;;;;;;;;;;21.59;55.11;100478.50;2093155;28;20214;-44
2021/12/30 01:27:00;;;;;;;;;;;;;;;21.59;55.25;100487.59;2094520;28;20406;-46
2021/12/30 01:28:00;;;;;;;;;;;;;;;21.58;55.12;100490.47;2093658;28;19931;-46
2021/12/30 01:29:01;;;;;;;;;;;;;;;21.57;55.19;100480.53;2093823;28;19912;-45
2021/12/30 01:30:03;;;;;;;;;;;;;;;21.57;55.03;100475.06;2095211;28;19916;-45
2021/12/30 01:31:03;;;;;;;;;;;;;;;21.56;55.17;100478.81;2091339;28;19962;-47
2021/12/30 01:32:04;;;;;;;;;;;;;;;21.55;55.18;100480.69;2102300;28;20268;-48
2021/12/30 01:33:04;;;;;;;;;;;;;;;21.55;55.30;100482.56;2091527;28;19920;-45
2021/12/30 01:34:04;;;;;;;;;;;;;;;21.54;55.19;100475.38;2092930;28;19919;-45
2021/12/30 01:35:08;;;;;;;;;;;;;;;21.55;55.07;100482.56;2091278;28;19916;-44
2021/12/30 01:36:08;;;;;;;;;;;;;;;21.54;55.15;100469.88;2082595;28;19978;-45
2021/12/30 01:37:09;;;;;;;;;;;;;;;21.54;55.38;100480.88;2070433;28;20425;-45
2021/12/30 01:38:12;;;;;;;;;;;;;;;21.53;55.23;100473.63;2083399;28;20354;-44
2021/12/30 01:39:13;;;;;;;;;;;;;;;21.53;55.20;100474.50;2093088;28;19926;-46
2021/12/30 01:40:15;;;;;;;;;;;;;;;21.53;55.16;100470.88;2089734;28;20244;-44
2021/12/30 01:41:16;;;;;;;;;;;;;;;21.53;55.07;100476.38;2095311;28;20209;-45
2021/12/30 01:42:16;;;;;;;;;;;;;;;21.51;55.36;100471.06;2089795;28;19916;-45
2021/12/30 01:43:19;;;;;;;;;;;;;;;21.53;55.08;100481.88;2096018;28;19926;-46
2021/12/30 01:44:19;;;;;;;;;;;;;;;21.51;55.17;100470.19;2085302;28;20262;-46
2021/12/30 01:45:20;;;;;;;;;;;;;;;21.53;55.12;100473.63;2090962;28;19912;-45
2021/12/30 01:46:20;;;;;;;;;;;;;;;21.52;55.10;100477.41;2085925;28;20322;-47
2021/12/30 01:47:20;;;;;;;;;;;;;;;21.52;55.23;100480.16;2094653;28;19916;-45
2021/12/30 01:48:21;;;;;;;;;;;;;;;21.52;55.18;100474.66;2089990;28;19958;-46
2021/12/30 01:49:21;;;;;;;;;;;;;;;21.51;55.20;100470.19;2097091;28;19916;-45
2021/12/30 01:50:23;;;;;;;;;;;;;;;21.51;55.25;100470.19;2091056;28;19917;-45
2021/12/30 01:51:24;;;;;;;;;;;;;;;21.50;55.36;100477.56;2087952;28;19920;-45
2021/12/30 01:52:24;;;;;;;;;;;;;;;21.52;55.24;100478.25;2092949;28;20370;-45
2021/12/30 01:53:24;;;;;;;;;;;;;;;21.51;55.14;100467.44;2092866;28;19959;-45
2021/12/30 01:54:25;;;;;;;;;;;;;;;21.51;55.16;100475.66;2091806;28;19912;-45
2021/12/30 01:55:26;;;;;;;;;;;;;;;21.52;54.99;100471.91;2093107;28;20025;-45
2021/12/30 01:56:26;;;;;;;;;;;;;;;21.51;55.12;100470.19;2092187;28;19912;-45
2021/12/30 01:57:26;;;;;;;;;;;;;;;21.53;55.27;100474.50;2092758;28;20978;-44
2021/12/30 01:58:27;;;;;;;;;;;;;;;21.52;55.31;100460.94;2092057;28;19916;-44
2021/12/30 01:59:27;;;;;;;;;;;;;;;21.52;55.35;100467.28;2092455;28;19982;-45
2021/12/30 02:00:29;;;;;;;;;;;;;;;21.55;55.23;100474.34;2088772;28;20105;-45
2021/12/30 02:01:29;;;;;;;;;;;;;;;21.54;55.14;100475.38;2094317;28;19916;-44
2021/12/30 02:02:30;;;;;;;;;;;;;;;21.55;55.18;100468.84;2093828;28;19919;-46
2021/12/30 02:03:30;;;;;;;;;;;;;;;21.57;55.19;100472.31;2085622;28;20571;-44
2021/12/30 02:04:31;;;;;;;;;;;;;;;21.56;55.10;100465.13;2091946;28;19916;-44
2021/12/30 02:05:32;;;;;;;;;;;;;;;21.57;55.22;100469.56;2094081;28;19915;-44
2021/12/30 02:06:32;;;;;;;;;;;;;;;21.57;55.11;100464.06;2093015;28;20017;-45
2021/12/30 02:07:32;;;;;;;;;;;;;;;21.59;55.11;100460.16;2093727;28;20238;-44
2021/12/30 02:08:33;;;;;;;;;;;;;;;21.59;55.20;100462.91;2091633;28;19915;-44
2021/12/30 02:09:33;;;;;;;;;;;;;;;21.60;54.90;100463.75;2092291;28;19923;-44
2021/12/30 02:10:34;;;;;;;;;;;;;;;21.62;55.20;100456.25;2089917;28;19920;-44
2021/12/30 02:11:34;;;;;;;;;;;;;;;21.63;54.84;100457.94;2089942;28;19958;-44
2021/12/30 02:12:36;;;;;;;;;;;;;;;21.63;54.96;100452.47;2093353;28;19914;-45
2021/12/30 02:13:36;;;;;;;;;;;;;;;21.64;54.93;100453.34;2092802;28;19931;-44
2021/12/30 02:14:37;;;;;;;;;;;;;;;21.65;54.84;100455.91;2093017;28;19920;-44
2021/12/30 02:15:37;;;;;;;;;;;;;;;21.66;54.95;100456.81;2095762;28;19996;-44
2021/12/30 02:16:38;;;;;;;;;;;;;;;21.66;54.80;100451.31;2089784;28;19912;-44
2021/12/30 02:17:39;;;;;;;;;;;;;;;21.68;54.93;100444.66;2092409;28;19927;-44
2021/12/30 02:18:39;;;;;;;;;;;;;;;21.69;54.72;100446.34;2091613;28;20595;-45
2021/12/30 02:19:39;;;;;;;;;;;;;;;21.69;54.94;100443.63;2090099;28;19919;-45
2021/12/30 02:20:56;;;;;;;;;;;;;;;21.70;54.84;100442.56;2092833;28;20405;-45
2021/12/30 02:21:56;;;;;;;;;;;;;;;21.72;54.80;100440.53;2088890;28;20296;-44
2021/12/30 02:22:57;;;;;;;;;;;;;;;21.71;54.50;100433.34;2095243;28;20323;-45
2021/12/30 02:23:58;;;;;;;;;;;;;;;21.74;54.50;100435.75;2090398;28;19966;-47
2021/12/30 02:24:59;;;;;;;;;;;;;;;21.74;54.81;100438.50;2094105;28;19943;-45
2021/12/30 02:26:02;;;;;;;;;;;;;;;21.75;54.75;100437.47;2095982;28;19912;-45
2021/12/30 02:27:03;;;;;;;;;;;;;;;21.75;54.80;100434.72;2087227;28;19912;-44
2021/12/30 02:28:07;;;;;;;;;;;;;;;21.77;54.84;100440.94;2091843;28;19999;-45
2021/12/30 02:29:08;;;;;;;;;;;;;;;21.78;54.58;100434.44;2088044;28;20413;-44
2021/12/30 02:30:08;;;;;;;;;;;;;;;21.79;54.52;100441.63;2095287;28;20030;-45
2021/12/30 02:31:16;;;;;;;;;;;;;;;21.82;54.52;100440.44;2091703;28;20003;-45
2021/12/30 02:32:16;;;;;;;;;;;;;;;21.82;54.39;100438.56;2093358;28;19950;-44
2021/12/30 02:33:17;;;;;;;;;;;;;;;21.84;54.52;100438.41;2092042;28;20046;-44
2021/12/30 02:34:19;;;;;;;;;;;;;;;21.84;54.56;100436.53;2096775;28;19912;-44
2021/12/30 02:35:20;;;;;;;;;;;;;;;21.86;54.55;100435.53;2086152;28;19913;-48
2021/12/30 02:36:22;;;;;;;;;;;;;;;21.84;54.40;100444.75;2089247;28;20402;-45
2021/12/30 02:37:22;;;;;;;;;;;;;;;21.86;54.33;100446.50;2094021;28;20004;-44
2021/12/30 02:38:23;;;;;;;;;;;;;;;21.86;54.33;100441.88;2092275;28;19920;-44
2021/12/30 02:39:24;;;;;;;;;;;;;;;21.87;54.63;100439.97;2095655;28;19919;-44
2021/12/30 02:40:29;;;;;;;;;;;;;;;21.88;54.46;100441.69;2092631;28;19915;-44
2021/12/30 02:41:33;;;;;;;;;;;;;;;21.87;54.45;100439.97;2091017;28;20282;-44
2021/12/30 02:42:33;;;;;;;;;;;;;;;21.88;54.37;100441.69;2087525;28;19920;-44
2021/12/30 02:43:33;;;;;;;;;;;;;;;21.88;54.22;100444.44;2085269;28;20453;-44
2021/12/30 02:44:35;;;;;;;;;;;;;;;21.89;54.38;100435.19;2088969;28;20375;-44
2021/12/30 02:45:36;;;;;;;;;;;;;;;21.88;54.24;100445.31;2088681;28;19912;-46
2021/12/30 02:46:39;;;;;;;;;;;;;;;21.88;54.34;100449.91;2087748;28;20615;-44
2021/12/30 02:47:39;;;;;;;;;;;;;;;21.89;54.15;100440.69;2087985;28;19954;-44
2021/12/30 02:48:41;;;;;;;;;;;;;;;21.88;54.35;100438.94;2091327;28;19951;-45
2021/12/30 02:49:41;;;;;;;;;;;;;;;21.89;54.28;100443.44;2084650;28;19924;-45
2021/12/30 02:50:43;;;;;;;;;;;;;;;21.89;54.48;100441.53;2086898;28;19916;-45
2021/12/30 02:51:44;;;;;;;;;;;;;;;21.89;54.31;100446.16;2095109;28;19908;-45
2021/12/30 02:52:44;;;;;;;;;;;;;;;21.89;54.47;100440.69;2086253;28;20130;-45
2021/12/30 02:53:44;;;;;;;;;;;;;;;21.88;54.41;100439.81;2089504;28;19926;-44
2021/12/30 02:54:44;;;;;;;;;;;;;;;21.89;54.40;100446.16;2087307;28;19920;-45
2021/12/30 02:55:45;;;;;;;;;;;;;;;21.88;54.40;100444.44;2089979;28;19923;-44
2021/12/30 02:56:47;;;;;;;;;;;;;;;21.88;54.46;100439.81;2085137;28;19916;-45
2021/12/30 02:57:48;;;;;;;;;;;;;;;21.88;54.42;100441.69;2080201;28;19916;-44
2021/12/30 02:58:48;;;;;;;;;;;;;;;21.88;54.48;100437.09;2083450;28;20363;-44
2021/12/30 02:59:48;;;;;;;;;;;;;;;21.88;54.22;100449.91;2093629;28;19916;-44
2021/12/30 03:00:50;;;;;;;;;;;;;;;21.87;54.40;100443.56;2089251;28;20049;-44
2021/12/30 03:01:51;;;;;;;;;;;;;;;21.88;54.25;100438.94;2096014;28;20439;-44
2021/12/30 03:02:51;;;;;;;;;;;;;;;21.87;54.42;100442.72;2088794;28;19913;-45
2021/12/30 03:03:52;;;;;;;;;;;;;;;21.87;54.47;100443.56;2093645;28;19920;-44
2021/12/30 03:04:52;;;;;;;;;;;;;;;21.88;54.23;100441.69;2085616;28;20010;-44
2021/12/30 03:05:56;;;;;;;;;;;;;;;21.87;54.46;100450.94;2096862;28;20271;-44
2021/12/30 03:06:58;;;;;;;;;;;;;;;21.87;54.56;100453.69;2088214;28;20414;-45
2021/12/30 03:07:58;;;;;;;;;;;;;;;21.86;54.40;100447.34;2088622;28;19971;-45
2021/12/30 03:08:59;;;;;;;;;;;;;;;21.86;54.48;100447.34;2091292;28;19955;-44
2021/12/30 03:09:59;;;;;;;;;;;;;;;21.87;54.27;100453.69;2088762;28;19961;-46
2021/12/30 03:11:00;;;;;;;;;;;;;;;21.86;54.23;100450.09;2090840;28;20342;-46
2021/12/30 03:12:00;;;;;;;;;;;;;;;21.84;54.32;100439.28;2088180;28;20345;-48
2021/12/30 03:13:05;;;;;;;;;;;;;;;21.84;54.45;100441.16;2091556;28;19927;-44
2021/12/30 03:14:05;;;;;;;;;;;;;;;21.84;54.42;100444.75;2088514;28;19912;-45
2021/12/30 03:15:05;;;;;;;;;;;;;;;21.84;54.41;100439.28;2092286;28;19995;-44
2021/12/30 03:16:07;;;;;;;;;;;;;;;21.82;54.19;100446.78;2091731;28;20358;-44
2021/12/30 03:17:08;;;;;;;;;;;;;;;21.83;54.52;100443.06;2086465;28;19999;-44
2021/12/30 03:18:08;;;;;;;;;;;;;;;21.83;54.43;100443.06;2085698;28;19920;-44
2021/12/30 03:19:09;;;;;;;;;;;;;;;21.82;54.50;100444.06;2084147;28;20354;-44
2021/12/30 03:20:09;;;;;;;;;;;;;;;21.82;54.45;100444.06;2078739;28;19924;-44
2021/12/30 03:21:10;;;;;;;;;;;;;;;21.82;54.25;100445.94;2084038;28;19920;-48
2021/12/30 03:22:12;;;;;;;;;;;;;;;21.82;54.43;100441.31;2082182;28;19920;-45
2021/12/30 03:23:12;;;;;;;;;;;;;;;21.81;54.52;100450.56;2085087;28;20377;-45
2021/12/30 03:24:12;;;;;;;;;;;;;;;21.81;54.55;100439.59;2083090;28;20035;-44
2021/12/30 03:25:14;;;;;;;;;;;;;;;21.81;54.55;100436.00;2086152;28;19916;-45
2021/12/30 03:26:15;;;;;;;;;;;;;;;21.81;54.37;100439.59;2079228;28;19998;-45
2021/12/30 03:27:15;;;;;;;;;;;;;;;21.81;54.41;100436.84;2082620;28;19913;-44
2021/12/30 03:28:15;;;;;;;;;;;;;;;21.80;54.38;100437.88;2080869;28;19913;-48
2021/12/30 03:29:16;;;;;;;;;;;;;;;21.80;54.30;100437.88;2084829;28;19991;-45
2021/12/30 03:30:16;;;;;;;;;;;;;;;21.80;54.44;100442.50;2082207;28;20166;-45
2021/12/30 03:31:17;;;;;;;;;;;;;;;21.78;54.42;100437.19;2080606;28;19913;-44
2021/12/30 03:32:18;;;;;;;;;;;;;;;21.79;54.34;100443.53;2077423;28;19956;-44
2021/12/30 03:33:20;;;;;;;;;;;;;;;21.78;54.50;100442.66;2078510;28;19920;-44
2021/12/30 03:34:20;;;;;;;;;;;;;;;21.78;54.39;100439.06;2087398;28;19919;-45
2021/12/30 03:35:20;;;;;;;;;;;;;;;21.78;54.48;100439.91;2084065;28;20244;-45
2021/12/30 03:36:21;;;;;;;;;;;;;;;21.77;54.22;100438.19;2086820;28;19920;-45
2021/12/30 03:37:21;;;;;;;;;;;;;;;21.77;54.41;100440.94;2084855;28;20294;-44
2021/12/30 03:38:22;;;;;;;;;;;;;;;21.76;54.47;100441.97;2085331;28;20464;-48
2021/12/30 03:39:22;;;;;;;;;;;;;;;21.76;54.38;100436.47;2086603;28;19912;-45
2021/12/30 03:40:22;;;;;;;;;;;;;;;21.76;54.40;100441.97;2084760;28;20204;-44
2021/12/30 03:41:25;;;;;;;;;;;;;;;21.75;54.45;100440.22;2085001;28;19912;-44
2021/12/30 03:42:26;;;;;;;;;;;;;;;21.76;54.50;100441.09;2083033;28;19916;-45
2021/12/30 03:43:27;;;;;;;;;;;;;;;21.76;54.47;100441.97;2089012;28;19967;-44
2021/12/30 03:44:27;;;;;;;;;;;;;;;21.73;54.60;100442.28;2085216;28;20388;-44
2021/12/30 03:45:28;;;;;;;;;;;;;;;21.74;54.40;100444.00;2081411;28;20476;-44
2021/12/30 03:46:29;;;;;;;;;;;;;;;21.74;54.57;100437.66;2087381;28;19934;-46
2021/12/30 03:47:29;;;;;;;;;;;;;;;21.74;54.66;100443.13;2081118;28;20326;-44
2021/12/30 03:48:34;;;;;;;;;;;;;;;21.74;54.62;100438.50;2084709;28;19966;-44
2021/12/30 03:49:35;;;;;;;;;;;;;;;21.74;54.62;100440.41;2083374;28;20311;-44
2021/12/30 03:50:42;;;;;;;;;;;;;;;21.73;54.44;100442.28;2084082;28;19955;-44
2021/12/30 03:51:42;;;;;;;;;;;;;;;21.73;54.62;100436.78;2086493;28;20407;-44
2021/12/30 03:52:42;;;;;;;;;;;;;;;21.72;54.39;100432.31;2081008;28;20050;-44
2021/12/30 03:53:45;;;;;;;;;;;;;;;21.73;54.58;100436.78;2073848;28;19920;-45
2021/12/30 03:54:46;;;;;;;;;;;;;;;21.73;54.52;100431.31;2077137;28;20364;-44
2021/12/30 03:55:48;;;;;;;;;;;;;;;21.72;54.38;100440.53;2086396;28;19996;-44
2021/12/30 03:56:48;;;;;;;;;;;;;;;21.73;54.41;100435.91;2086959;28;19919;-44
2021/12/30 03:57:50;;;;;;;;;;;;;;;21.72;54.60;100436.94;2086122;28;19916;-44
2021/12/30 03:58:51;;;;;;;;;;;;;;;21.71;54.50;100436.09;2085754;28;19923;-43
2021/12/30 03:59:51;;;;;;;;;;;;;;;21.72;54.66;100436.94;2083531;28;19924;-44
2021/12/30 04:00:51;;;;;;;;;;;;;;;21.71;54.66;100433.34;2083636;28;20201;-44
2021/12/30 04:01:52;;;;;;;;;;;;;;;21.71;54.55;100433.34;2081363;28;20243;-44
2021/12/30 04:02:52;;;;;;;;;;;;;;;21.71;54.62;100446.22;2087442;28;19924;-46
2021/12/30 04:03:53;;;;;;;;;;;;;;;21.70;54.65;100441.72;2086507;28;20015;-43
2021/12/30 04:04:53;;;;;;;;;;;;;;;21.70;54.36;100448.06;2092197;28;19916;-43
2021/12/30 04:05:54;;;;;;;;;;;;;;;21.69;54.56;100446.34;2085489;28;19927;-43
2021/12/30 04:06:54;;;;;;;;;;;;;;;21.70;54.49;100447.22;2095221;28;19948;-43
2021/12/30 04:07:54;;;;;;;;;;;;;;;21.69;54.42;100440.88;2083667;28;19923;-44
2021/12/30 04:08:56;;;;;;;;;;;;;;;21.69;54.68;100446.34;2087404;28;19922;-43
2021/12/30 04:09:56;;;;;;;;;;;;;;;21.69;54.71;100440.88;2086287;28;19917;-44
2021/12/30 04:10:57;;;;;;;;;;;;;;;21.69;54.63;100445.50;2086499;28;19931;-44
2021/12/30 04:11:57;;;;;;;;;;;;;;;21.68;54.62;100439.16;2094880;28;19915;-45
2021/12/30 04:12:58;;;;;;;;;;;;;;;21.68;54.43;100441.00;2086191;28;19913;-44
2021/12/30 04:13:58;;;;;;;;;;;;;;;21.67;54.48;100440.16;2085952;28;19915;-44
2021/12/30 04:14:59;;;;;;;;;;;;;;;21.67;54.66;100442.91;2079002;28;20315;-44
2021/12/30 04:15:59;;;;;;;;;;;;;;;21.67;54.51;100442.91;2088392;28;19926;-44
2021/12/30 04:17:01;;;;;;;;;;;;;;;21.67;54.82;100444.78;2094003;28;20078;-44
2021/12/30 04:18:02;;;;;;;;;;;;;;;21.66;54.39;100438.44;2089977;28;19920;-44
2021/12/30 04:19:03;;;;;;;;;;;;;;;21.67;54.52;100445.66;2086793;28;19927;-43
2021/12/30 04:20:05;;;;;;;;;;;;;;;21.66;54.74;100443.94;2091006;28;20356;-47
2021/12/30 04:21:05;;;;;;;;;;;;;;;21.65;54.76;100450.44;2094036;28;19919;-44
2021/12/30 04:22:05;;;;;;;;;;;;;;;21.65;54.78;100438.59;2084005;28;19944;-43
2021/12/30 04:23:07;;;;;;;;;;;;;;;21.65;54.98;100441.34;2086601;28;19923;-44
2021/12/30 04:24:08;;;;;;;;;;;;;;;21.64;54.86;100445.97;2095196;28;19923;-44
2021/12/30 04:25:09;;;;;;;;;;;;;;;21.64;54.51;100445.97;2085904;28;19912;-45
2021/12/30 04:26:09;;;;;;;;;;;;;;;21.64;54.84;100445.97;2084407;28;19971;-43
2021/12/30 04:27:10;;;;;;;;;;;;;;;21.63;54.83;100446.97;2093018;28;19920;-43
2021/12/30 04:28:10;;;;;;;;;;;;;;;21.63;54.68;100457.94;2093147;28;19915;-43
2021/12/30 04:29:11;;;;;;;;;;;;;;;21.63;54.70;100455.22;2095348;28;19916;-44
2021/12/30 04:30:12;;;;;;;;;;;;;;;21.62;54.83;100451.59;2089243;28;19913;-43
2021/12/30 04:31:13;;;;;;;;;;;;;;;21.63;54.76;100463.44;2088650;28;19927;-44
2021/12/30 04:32:13;;;;;;;;;;;;;;;21.62;54.70;100461.72;2093642;28;20311;-43
2021/12/30 04:33:13;;;;;;;;;;;;;;;21.62;54.83;100461.72;2091681;28;19916;-43
2021/12/30 04:34:14;;;;;;;;;;;;;;;21.62;54.76;100467.22;2095098;28;20284;-42
2021/12/30 04:35:14;;;;;;;;;;;;;;;21.62;54.94;100472.69;2088219;28;19936;-43
2021/12/30 04:36:15;;;;;;;;;;;;;;;21.62;54.79;100461.72;2093407;28;19912;-44
2021/12/30 04:37:16;;;;;;;;;;;;;;;21.61;54.64;100465.50;2090588;28;19908;-43
2021/12/30 04:38:16;;;;;;;;;;;;;;;21.60;54.70;100469.25;2091155;28;19963;-45
2021/12/30 04:39:16;;;;;;;;;;;;;;;21.61;54.99;100471.00;2094204;28;20707;-43
2021/12/30 04:40:16;;;;;;;;;;;;;;;21.60;54.90;100474.72;2092181;28;20355;-44
2021/12/30 04:41:18;;;;;;;;;;;;;;;21.59;54.74;100473.88;2094367;28;19912;-44
2021/12/30 04:42:18;;;;;;;;;;;;;;;21.59;54.96;100470.28;2092135;28;19920;-43
2021/12/30 04:43:18;;;;;;;;;;;;;;;21.59;54.83;100467.53;2091950;28;20199;-44
2021/12/30 04:44:19;;;;;;;;;;;;;;;21.57;54.78;100464.94;2089781;28;20004;-44
2021/12/30 04:45:19;;;;;;;;;;;;;;;21.59;54.83;100470.28;2092856;28;20325;-45
2021/12/30 04:46:19;;;;;;;;;;;;;;;21.59;54.85;100464.78;2093760;28;19912;-44
2021/12/30 04:47:20;;;;;;;;;;;;;;;21.58;54.68;100471.28;2092266;28;20254;-44
2021/12/30 04:48:21;;;;;;;;;;;;;;;21.57;55.03;100467.69;2093016;28;19908;-44
2021/12/30 04:49:22;;;;;;;;;;;;;;;21.57;54.88;100467.69;2090040;28;20224;-45
2021/12/30 04:50:23;;;;;;;;;;;;;;;21.56;54.93;100470.59;2093900;28;20241;-43
2021/12/30 04:51:23;;;;;;;;;;;;;;;21.58;55.04;100474.03;2086669;28;19917;-43
2021/12/30 04:52:25;;;;;;;;;;;;;;;21.56;54.65;100470.59;2082967;28;19979;-44
2021/12/30 04:53:25;;;;;;;;;;;;;;;21.56;55.05;100473.34;2091815;28;19916;-43
2021/12/30 04:54:26;;;;;;;;;;;;;;;21.55;54.69;100474.34;2089384;28;20221;-44
2021/12/30 04:55:26;;;;;;;;;;;;;;;21.55;54.74;100472.44;2089954;28;19927;-44
2021/12/30 04:56:26;;;;;;;;;;;;;;;21.55;54.69;100477.94;2095229;28;19943;-43
2021/12/30 04:57:26;;;;;;;;;;;;;;;21.53;54.96;100474.50;2088904;28;20079;-43
2021/12/30 04:58:27;;;;;;;;;;;;;;;21.53;54.71;100477.22;2093143;28;19931;-44
2021/12/30 04:59:27;;;;;;;;;;;;;;;21.54;54.92;100475.38;2087452;28;19943;-44
2021/12/30 05:00:27;;;;;;;;;;;;;;;21.53;54.80;100474.50;2093028;28;19946;-44
2021/12/30 05:01:28;;;;;;;;;;;;;;;21.54;54.81;100469.88;2092864;28;20480;-45
2021/12/30 05:02:39;;;;;;;;;;;;;;;21.52;54.69;100478.25;2090116;28;19909;-44
2021/12/30 05:03:39;;;;;;;;;;;;;;;21.53;54.98;100476.38;2092844;28;19931;-44
2021/12/30 05:04:39;;;;;;;;;;;;;;;21.51;54.88;100481.16;2091630;28;20347;-44
2021/12/30 05:05:40;;;;;;;;;;;;;;;21.52;54.88;100482.91;2092425;28;19916;-44
2021/12/30 05:06:40;;;;;;;;;;;;;;;21.52;55.07;100482.91;2087183;28;19916;-44
2021/12/30 05:07:40;;;;;;;;;;;;;;;21.52;54.95;100482.91;2093132;28;19920;-44
2021/12/30 05:08:41;;;;;;;;;;;;;;;21.51;54.91;100494.88;2089760;28;19920;-44
2021/12/30 05:09:41;;;;;;;;;;;;;;;21.51;54.83;100492.13;2092358;28;20288;-46
2021/12/30 05:10:41;;;;;;;;;;;;;;;21.50;55.14;100494.00;2093667;28;20741;-44
2021/12/30 05:11:42;;;;;;;;;;;;;;;21.50;54.85;100504.13;2092429;28;20151;-44
2021/12/30 05:12:42;;;;;;;;;;;;;;;21.49;54.95;100505.16;2092403;28;20373;-44
2021/12/30 05:13:43;;;;;;;;;;;;;;;21.49;54.86;100507.91;2089775;28;19915;-45